TNCM

Princess Juliana International Airport

Philipsburg, , Netherlands Antilles
TNCM 161720Z 1618/1718 08012KT P6SM -SHRA SCT022 BKN050 FM171500 11011KT P6SM FEW025
Issued Valid From Valid To
Aug-16 @ 17:20 UTC
(3 hours ago)
Aug-16 @ 18:00 UTC
(2 hours ago)
Aug-17 @ 18:00 UTC
(in 22 hours)
Aug-16 @ 18:00 to Aug-17 @ 15:00
TNCM 161720Z 1618/1718 08012KT P6SM -SHRA SCT022 BKN050
Wind Visibility Clouds Conditions
80° at 12 knots 10,000+ meters
  • Scattered at 2,200' AGL
  • Broken at 5,000' AGL
  • Light Rain
From Aug-17 @ 15:00 to Aug-17 @ 18:00
FM171500 11011KT P6SM FEW025
Wind Visibility Clouds
110° at 11 knots 10,000+ meters
  • Few at 2,500' AGL
TNCM 161720Z 1618/1718 08012KT P6SM -SHRA SCT022 BKN050 FM171500 11011KT P6SM FEW025
Issued Aug-16 @ 17:20 UTC
(3 hours ago)
Valid From Aug-16 @ 18:00 UTC
(2 hours ago)
Valid To Aug-17 @ 18:00 UTC
(in 22 hours)
Aug-16 @ 18:00 - Aug-17 @ 15:00
Wind Visibility
80° at 12 knots 10,000+ meters
Clouds
  • Scattered at 2,200' AGL
  • Broken at 5,000' AGL
Conditions
  • Light Rain
From Aug-17 @ 15:00 - Aug-17 @ 18:00
Wind Visibility
110° at 11 knots 10,000+ meters
Clouds
  • Few at 2,500' AGL